Time;durP1;ratioP1;P1;durP2;ratioP2;P2;SDS_P1;SDS_P2;PMS_P1;PMS_P2;Temp;Humidity;BMP_temperature;BMP_pressure;BME280_temperature;BME280_humidity;BME280_pressure;Samples;Min_cycle;Max_cycle;Signal;HPM_P1;HPM_P2
2024/01/11 00:00:16;;;;;;;27.98;18.70;;;;;;;;;;4977042;28;20207;-77
2024/01/11 00:02:44;;;;;;;25.55;17.15;;;;;;;;;;4977080;28;20199;-78
2024/01/11 00:05:11;;;;;;;27.77;17.08;;;;;;;;;;4977056;28;20315;-78
2024/01/11 00:07:39;;;;;;;37.00;21.25;;;;;;;;;;4977724;28;20278;-80
2024/01/11 00:10:07;;;;;;;30.80;18.95;;;;;;;;;;4976786;28;20211;-78
2024/01/11 00:12:34;;;;;;;32.92;20.63;;;;;;;;;;4976258;28;20208;-78
2024/01/11 00:15:02;;;;;;;30.27;19.55;;;;;;;;;;4976766;28;20220;-77
2024/01/11 00:17:31;;;;;;;27.65;16.95;;;;;;;;;;4976736;28;20200;-78
2024/01/11 00:19:58;;;;;;;29.45;17.25;;;;;;;;;;4977064;28;20236;-78
2024/01/11 00:22:26;;;;;;;30.60;18.63;;;;;;;;;;4977400;28;20217;-80
2024/01/11 00:24:53;;;;;;;31.88;19.25;;;;;;;;;;4976816;28;20731;-77
2024/01/11 00:27:21;;;;;;;32.80;20.48;;;;;;;;;;4976954;28;20314;-78
2024/01/11 00:29:48;;;;;;;27.55;18.80;;;;;;;;;;4973895;28;20211;-80
2024/01/11 00:32:16;;;;;;;31.30;19.50;;;;;;;;;;4975108;28;20209;-78
2024/01/11 00:34:44;;;;;;;32.63;18.77;;;;;;;;;;4980538;28;20225;-77
2024/01/11 00:37:12;;;;;;;28.70;18.80;;;;;;;;;;4980486;28;20235;-78
2024/01/11 00:39:39;;;;;;;28.95;18.33;;;;;;;;;;4980057;28;20207;-79
2024/01/11 00:42:07;;;;;;;33.67;20.27;;;;;;;;;;4980039;28;20577;-80
2024/01/11 00:44:34;;;;;;;29.30;19.67;;;;;;;;;;4980057;28;20224;-77
2024/01/11 00:47:01;;;;;;;34.10;21.52;;;;;;;;;;4979688;28;20224;-78
2024/01/11 00:49:29;;;;;;;34.60;21.27;;;;;;;;;;4979666;28;20208;-77
2024/01/11 00:51:58;;;;;;;35.90;19.00;;;;;;;;;;4979504;28;20207;-78
2024/01/11 00:54:25;;;;;;;32.15;19.27;;;;;;;;;;4980493;28;20220;-79
2024/01/11 00:56:53;;;;;;;32.53;18.33;;;;;;;;;;4978329;28;20196;-78
2024/01/11 00:59:20;;;;;;;36.65;19.70;;;;;;;;;;4976557;28;20201;-77
2024/01/11 01:01:49;;;;;;;30.73;20.10;;;;;;;;;;4979638;28;20203;-78
2024/01/11 01:04:17;;;;;;;33.08;19.30;;;;;;;;;;4980500;28;20220;-77
2024/01/11 01:06:44;;;;;;;32.58;21.83;;;;;;;;;;4981236;28;20220;-78
2024/01/11 01:09:14;;;;;;;29.95;20.20;;;;;;;;;;4980026;28;20196;-78
2024/01/11 01:11:42;;;;;;;35.33;19.52;;;;;;;;;;4980102;28;20180;-79
2024/01/11 01:14:10;;;;;;;38.50;21.40;;;;;;;;;;4979576;28;20311;-78
2024/01/11 01:16:37;;;;;;;37.28;21.88;;;;;;;;;;4979703;28;20207;-78
2024/01/11 01:19:04;;;;;;;32.85;19.63;;;;;;;;;;4979655;28;20643;-77
2024/01/11 01:21:32;;;;;;;36.08;21.33;;;;;;;;;;4981335;28;20211;-80
2024/01/11 01:23:59;;;;;;;30.50;19.80;;;;;;;;;;4978290;28;20247;-79
2024/01/11 01:26:28;;;;;;;27.52;17.60;;;;;;;;;;4975764;28;20250;-81
2024/01/11 01:28:56;;;;;;;31.73;19.60;;;;;;;;;;4979030;28;20204;-79
2024/01/11 01:31:23;;;;;;;32.67;19.85;;;;;;;;;;4974394;28;20205;-77
2024/01/11 01:33:50;;;;;;;35.72;20.88;;;;;;;;;;4979096;28;20220;-78
2024/01/11 01:36:18;;;;;;;34.70;20.67;;;;;;;;;;4978794;28;20208;-79
2024/01/11 01:38:45;;;;;;;30.25;19.00;;;;;;;;;;4978575;28;20295;-78
2024/01/11 01:41:13;;;;;;;35.38;20.17;;;;;;;;;;4978250;28;20208;-80
2024/01/11 01:43:41;;;;;;;37.10;20.65;;;;;;;;;;4978627;28;20728;-78
2024/01/11 01:46:09;;;;;;;32.65;20.63;;;;;;;;;;4977502;28;20208;-79
2024/01/11 01:48:37;;;;;;;36.70;20.50;;;;;;;;;;4978483;28;20311;-80
2024/01/11 01:51:05;;;;;;;31.33;19.85;;;;;;;;;;4978417;28;20667;-80
2024/01/11 01:53:32;;;;;;;28.30;20.23;;;;;;;;;;4978892;28;20214;-79
2024/01/11 01:56:00;;;;;;;30.98;18.63;;;;;;;;;;4977481;28;20211;-80
2024/01/11 01:58:27;;;;;;;32.65;18.88;;;;;;;;;;4978590;28;20196;-79
2024/01/11 02:00:57;;;;;;;32.05;20.90;;;;;;;;;;4978729;28;20316;-80
2024/01/11 02:03:26;;;;;;;37.03;21.20;;;;;;;;;;4977319;28;20237;-80
2024/01/11 02:05:53;;;;;;;36.72;21.02;;;;;;;;;;4978421;28;20205;-78
2024/01/11 02:08:24;;;;;;;37.40;21.40;;;;;;;;;;4977231;28;20228;-80
2024/01/11 02:10:51;;;;;;;40.00;22.52;;;;;;;;;;4978276;28;20624;-79
2024/01/11 02:13:18;;;;;;;40.28;23.35;;;;;;;;;;4976849;28;20302;-80
2024/01/11 02:15:46;;;;;;;39.55;23.08;;;;;;;;;;4977805;28;20204;-80
2024/01/11 02:18:15;;;;;;;40.90;23.63;;;;;;;;;;4979563;28;20674;-78
2024/01/11 02:20:43;;;;;;;40.45;23.35;;;;;;;;;;4977939;28;20274;-80
2024/01/11 02:23:16;;;;;;;33.60;21.20;;;;;;;;;;4977780;28;20312;-80
2024/01/11 02:25:44;;;;;;;42.78;24.95;;;;;;;;;;4971177;28;20292;-80
2024/01/11 02:28:12;;;;;;;38.20;21.58;;;;;;;;;;4970113;28;20670;-79
2024/01/11 02:30:39;;;;;;;33.38;19.13;;;;;;;;;;4973172;28;20220;-80
2024/01/11 02:33:07;;;;;;;35.63;21.50;;;;;;;;;;4971667;28;20201;-79
2024/01/11 02:35:37;;;;;;;40.03;21.92;;;;;;;;;;4977180;28;20423;-80
2024/01/11 02:38:05;;;;;;;37.28;20.90;;;;;;;;;;4977131;28;20200;-80
2024/01/11 02:40:32;;;;;;;37.65;21.13;;;;;;;;;;4977791;28;20235;-80
2024/01/11 02:43:09;;;;;;;42.85;23.73;;;;;;;;;;4978234;28;20208;-80
2024/01/11 02:45:37;;;;;;;35.10;22.15;;;;;;;;;;4977813;28;20228;-80
2024/01/11 02:48:05;;;;;;;37.38;21.23;;;;;;;;;;4977836;28;20228;-79
2024/01/11 02:50:33;;;;;;;36.10;22.13;;;;;;;;;;4977188;28;20304;-79
2024/01/11 02:53:00;;;;;;;31.92;20.13;;;;;;;;;;4977742;28;20234;-80
2024/01/11 02:55:27;;;;;;;41.63;23.33;;;;;;;;;;4977437;28;20228;-80
2024/01/11 02:57:55;;;;;;;36.22;22.92;;;;;;;;;;4977862;28;20200;-78
2024/01/11 03:00:24;;;;;;;36.42;20.77;;;;;;;;;;4977103;28;20201;-80
2024/01/11 03:02:51;;;;;;;34.45;20.98;;;;;;;;;;4978193;28;20576;-79
2024/01/11 03:05:19;;;;;;;36.00;23.05;;;;;;;;;;4977739;28;20226;-80
2024/01/11 03:07:46;;;;;;;35.78;20.05;;;;;;;;;;4977739;28;20589;-79
2024/01/11 03:10:13;;;;;;;30.27;22.05;;;;;;;;;;4978044;28;20200;-79
2024/01/11 03:12:41;;;;;;;33.33;20.05;;;;;;;;;;4977434;28;20275;-79
2024/01/11 03:15:10;;;;;;;32.40;19.45;;;;;;;;;;4978276;28;20725;-78
2024/01/11 03:17:38;;;;;;;30.67;19.02;;;;;;;;;;4978103;28;20197;-79
2024/01/11 03:20:07;;;;;;;35.08;22.75;;;;;;;;;;4977760;28;20204;-79
2024/01/11 03:22:35;;;;;;;28.05;19.40;;;;;;;;;;4979712;28;20275;-79
2024/01/11 03:25:02;;;;;;;29.40;19.48;;;;;;;;;;4976206;28;20234;-78
2024/01/11 03:27:30;;;;;;;39.67;21.65;;;;;;;;;;4975615;28;20213;-80
2024/01/11 03:29:57;;;;;;;41.55;21.45;;;;;;;;;;4973323;28;20562;-79
2024/01/11 03:32:25;;;;;;;32.20;20.50;;;;;;;;;;4974808;28;20296;-79
2024/01/11 03:34:53;;;;;;;42.75;22.05;;;;;;;;;;4974113;28;20299;-79
2024/01/11 03:37:21;;;;;;;40.22;24.00;;;;;;;;;;4977509;28;20291;-79
2024/01/11 03:39:48;;;;;;;40.00;21.92;;;;;;;;;;4977227;28;20582;-79
2024/01/11 03:42:16;;;;;;;35.05;22.98;;;;;;;;;;4977225;28;20223;-79
2024/01/11 03:44:43;;;;;;;41.00;22.83;;;;;;;;;;4977318;28;20637;-79
2024/01/11 03:47:10;;;;;;;41.33;24.17;;;;;;;;;;4977192;28;20214;-79
2024/01/11 03:49:38;;;;;;;36.53;22.77;;;;;;;;;;4977133;28;20595;-80
2024/01/11 03:52:07;;;;;;;36.88;23.30;;;;;;;;;;4977679;28;20296;-80
2024/01/11 03:54:35;;;;;;;36.20;21.05;;;;;;;;;;4977208;28;20323;-79
2024/01/11 03:57:02;;;;;;;37.20;21.60;;;;;;;;;;4977008;28;20585;-79
2024/01/11 03:59:29;;;;;;;40.50;23.83;;;;;;;;;;4976956;28;20207;-80
2024/01/11 04:01:58;;;;;;;27.75;19.08;;;;;;;;;;4978908;28;20211;-80
2024/01/11 04:04:25;;;;;;;35.70;21.05;;;;;;;;;;4981076;28;20224;-79
2024/01/11 04:06:53;;;;;;;34.08;20.95;;;;;;;;;;4977001;28;20296;-79
2024/01/11 04:09:22;;;;;;;35.25;20.98;;;;;;;;;;4978090;28;20300;-80
2024/01/11 04:11:49;;;;;;;30.63;19.30;;;;;;;;;;4980936;28;20303;-80
2024/01/11 04:14:17;;;;;;;40.33;21.23;;;;;;;;;;4980574;28;20220;-79
2024/01/11 04:16:44;;;;;;;34.33;20.42;;;;;;;;;;4980965;28;20317;-79
2024/01/11 04:19:12;;;;;;;28.25;18.77;;;;;;;;;;4980431;28;20278;-79
2024/01/11 04:21:40;;;;;;;41.08;20.67;;;;;;;;;;4979520;28;20204;-79
2024/01/11 04:24:08;;;;;;;35.63;19.70;;;;;;;;;;4978569;28;20344;-79
2024/01/11 04:26:37;;;;;;;36.33;20.30;;;;;;;;;;4980447;28;20582;-80
2024/01/11 04:29:04;;;;;;;36.40;20.60;;;;;;;;;;4980547;28;20228;-80
2024/01/11 04:31:31;;;;;;;36.05;21.10;;;;;;;;;;4974952;28;20209;-79
2024/01/11 04:33:59;;;;;;;37.40;22.17;;;;;;;;;;4977843;28;20220;-78
2024/01/11 04:36:26;;;;;;;30.30;19.48;;;;;;;;;;4981058;28;20583;-79
2024/01/11 04:38:54;;;;;;;30.77;18.55;;;;;;;;;;4977055;28;20211;-79
2024/01/11 04:41:21;;;;;;;27.15;17.23;;;;;;;;;;4974676;28;20674;-79
2024/01/11 04:43:50;;;;;;;35.60;20.23;;;;;;;;;;4979187;28;20311;-78
2024/01/11 04:46:18;;;;;;;26.52;17.38;;;;;;;;;;4979679;28;20227;-79
2024/01/11 04:48:46;;;;;;;29.02;19.33;;;;;;;;;;4979546;28;20264;-79
2024/01/11 04:51:14;;;;;;;28.58;18.52;;;;;;;;;;4980535;28;20268;-79
2024/01/11 04:53:43;;;;;;;29.48;18.08;;;;;;;;;;4978718;28;20232;-79
2024/01/11 04:56:12;;;;;;;35.83;20.00;;;;;;;;;;4979861;28;20211;-80
2024/01/11 04:58:42;;;;;;;32.03;17.90;;;;;;;;;;4977811;28;20204;-79
2024/01/11 05:01:14;;;;;;;34.72;18.13;;;;;;;;;;4979769;28;20200;-80
2024/01/11 05:03:41;;;;;;;26.33;17.00;;;;;;;;;;4979298;28;20252;-80
2024/01/11 05:06:09;;;;;;;31.05;17.00;;;;;;;;;;4979004;28;20207;-80
2024/01/11 05:08:36;;;;;;;32.05;18.35;;;;;;;;;;4979359;28;20231;-80
2024/01/11 05:11:04;;;;;;;30.88;17.08;;;;;;;;;;4980419;28;20645;-79
2024/01/11 05:13:31;;;;;;;30.77;17.52;;;;;;;;;;4980173;28;20296;-80
2024/01/11 05:15:59;;;;;;;40.88;20.23;;;;;;;;;;4978966;28;20573;-80
2024/01/11 05:18:27;;;;;;;32.42;19.48;;;;;;;;;;4978383;28;20204;-79
2024/01/11 05:20:55;;;;;;;33.95;21.17;;;;;;;;;;4975942;28;20226;-79
2024/01/11 05:23:22;;;;;;;33.30;20.30;;;;;;;;;;4981042;28;20207;-79
2024/01/11 05:25:50;;;;;;;35.05;21.17;;;;;;;;;;4975759;28;20210;-80
2024/01/11 05:28:17;;;;;;;44.05;23.67;;;;;;;;;;4973030;28;20211;-79
2024/01/11 05:30:45;;;;;;;35.45;20.63;;;;;;;;;;4972938;28;20234;-79
2024/01/11 05:33:12;;;;;;;38.05;20.83;;;;;;;;;;4976467;28;20226;-79
2024/01/11 05:35:41;;;;;;;35.92;21.73;;;;;;;;;;4978889;28;20224;-79
2024/01/11 05:38:08;;;;;;;37.30;22.27;;;;;;;;;;4978996;28;20215;-79
2024/01/11 05:40:36;;;;;;;37.88;20.73;;;;;;;;;;4978400;28;20197;-78
2024/01/11 05:43:03;;;;;;;37.45;22.88;;;;;;;;;;4978501;28;20207;-79
2024/01/11 05:45:31;;;;;;;34.85;20.63;;;;;;;;;;4978884;28;20227;-79
2024/01/11 05:47:58;;;;;;;32.38;19.73;;;;;;;;;;4979153;28;20227;-78
2024/01/11 05:50:26;;;;;;;40.50;21.33;;;;;;;;;;4980350;28;20287;-80
2024/01/11 05:52:56;;;;;;;33.05;21.42;;;;;;;;;;4978102;28;20295;-79
2024/01/11 05:55:23;;;;;;;33.17;20.40;;;;;;;;;;4978716;28;20620;-78
2024/01/11 05:57:51;;;;;;;26.35;16.60;;;;;;;;;;4978930;28;20203;-80
2024/01/11 06:00:19;;;;;;;22.23;15.70;;;;;;;;;;4978702;28;20287;-80
2024/01/11 06:02:47;;;;;;;32.42;20.20;;;;;;;;;;4977739;28;20204;-79
2024/01/11 06:05:15;;;;;;;33.63;18.98;;;;;;;;;;4978291;28;20252;-80
2024/01/11 06:07:42;;;;;;;32.08;19.75;;;;;;;;;;4977416;28;20211;-80
2024/01/11 06:10:11;;;;;;;29.73;21.02;;;;;;;;;;4977269;28;20228;-77
2024/01/11 06:12:38;;;;;;;32.80;17.98;;;;;;;;;;4978375;28;20204;-79
2024/01/11 06:15:08;;;;;;;35.65;21.38;;;;;;;;;;4980353;28;20231;-77
2024/01/11 06:17:35;;;;;;;29.55;18.08;;;;;;;;;;4977686;28;20304;-77
2024/01/11 06:20:03;;;;;;;29.92;17.50;;;;;;;;;;4978152;28;20295;-78
2024/01/11 06:22:30;;;;;;;22.70;15.05;;;;;;;;;;4977218;28;20204;-80
2024/01/11 06:24:59;;;;;;;36.65;22.67;;;;;;;;;;4976104;28;20239;-80
2024/01/11 06:27:28;;;;;;;32.72;18.45;;;;;;;;;;4973491;28;20212;-79
2024/01/11 06:29:55;;;;;;;32.28;20.40;;;;;;;;;;4975249;28;20244;-80
2024/01/11 06:32:23;;;;;;;31.77;20.50;;;;;;;;;;4976490;28;20210;-79
2024/01/11 06:34:51;;;;;;;29.88;18.20;;;;;;;;;;4975348;28;20220;-79
2024/01/11 06:37:18;;;;;;;32.17;18.13;;;;;;;;;;4978088;28;20200;-80
2024/01/11 06:39:46;;;;;;;31.92;20.67;;;;;;;;;;4979913;28;20232;-80
2024/01/11 06:42:14;;;;;;;37.28;21.85;;;;;;;;;;4978227;28;20204;-79
2024/01/11 06:44:43;;;;;;;38.15;21.45;;;;;;;;;;4976949;28;20231;-80
2024/01/11 06:47:10;;;;;;;33.65;21.35;;;;;;;;;;4978278;28;20207;-81
2024/01/11 06:49:40;;;;;;;38.83;22.90;;;;;;;;;;4976737;28;20235;-80
2024/01/11 06:52:08;;;;;;;36.00;20.85;;;;;;;;;;4976600;28;20204;-80
2024/01/11 06:54:36;;;;;;;33.08;20.17;;;;;;;;;;4978025;28;20235;-80
2024/01/11 06:57:04;;;;;;;39.22;18.83;;;;;;;;;;4978944;28;20267;-80
2024/01/11 06:59:31;;;;;;;29.40;18.17;;;;;;;;;;4980531;28;20200;-80
2024/01/11 07:02:00;;;;;;;35.00;17.90;;;;;;;;;;4977908;28;20222;-78
2024/01/11 07:04:28;;;;;;;32.03;18.33;;;;;;;;;;4978052;28;20691;-79
2024/01/11 07:06:55;;;;;;;22.05;14.15;;;;;;;;;;4974229;28;20372;-80
2024/01/11 07:09:23;;;;;;;23.92;14.10;;;;;;;;;;4976565;28;20212;-80
2024/01/11 07:11:50;;;;;;;27.70;15.52;;;;;;;;;;4986879;28;20739;-79
2024/01/11 07:14:18;;;;;;;29.45;17.15;;;;;;;;;;4981783;28;20286;-81
2024/01/11 07:16:45;;;;;;;28.55;17.02;;;;;;;;;;4980538;28;20576;-80
2024/01/11 07:19:14;;;;;;;37.08;19.13;;;;;;;;;;4979467;28;20205;-79
2024/01/11 07:21:42;;;;;;;32.97;18.23;;;;;;;;;;4977634;28;20203;-79
2024/01/11 07:24:09;;;;;;;23.20;15.30;;;;;;;;;;4980745;28;20232;-80
2024/01/11 07:26:37;;;;;;;22.30;15.65;;;;;;;;;;4974292;28;20664;-80
2024/01/11 07:29:04;;;;;;;17.60;10.57;;;;;;;;;;4976310;28;20215;-80
2024/01/11 07:31:32;;;;;;;18.08;11.98;;;;;;;;;;4974648;28;20753;-79
2024/01/11 07:33:59;;;;;;;18.30;12.20;;;;;;;;;;4977912;28;20226;-80
2024/01/11 07:36:28;;;;;;;27.05;15.60;;;;;;;;;;4980838;28;20204;-80
2024/01/11 07:38:56;;;;;;;24.63;16.90;;;;;;;;;;4978258;28;20214;-80
2024/01/11 07:41:24;;;;;;;23.30;14.07;;;;;;;;;;4981353;28;20201;-79
2024/01/11 07:43:51;;;;;;;20.30;13.45;;;;;;;;;;4981241;28;20676;-80
2024/01/11 07:46:19;;;;;;;19.40;13.07;;;;;;;;;;4981243;28;20204;-79
2024/01/11 07:48:46;;;;;;;18.92;11.85;;;;;;;;;;4981628;28;20204;-80
2024/01/11 07:51:14;;;;;;;16.13;11.30;;;;;;;;;;4980077;28;20228;-78
2024/01/11 07:53:43;;;;;;;13.43;10.70;;;;;;;;;;4979749;28;20315;-80
2024/01/11 07:56:10;;;;;;;40.50;21.20;;;;;;;;;;4984332;28;20710;-79
2024/01/11 07:58:38;;;;;;;43.25;22.23;;;;;;;;;;4981831;28;20200;-80
2024/01/11 08:01:05;;;;;;;26.42;17.35;;;;;;;;;;4986714;28;20284;-80
2024/01/11 08:03:34;;;;;;;24.38;15.43;;;;;;;;;;4981372;28;20200;-79
2024/01/11 08:06:02;;;;;;;22.00;13.93;;;;;;;;;;4984318;28;20208;-79
2024/01/11 08:08:29;;;;;;;27.00;17.15;;;;;;;;;;4981880;28;20207;-79
2024/01/11 08:10:58;;;;;;;31.73;20.63;;;;;;;;;;4978660;28;20566;-79
2024/01/11 08:13:25;;;;;;;30.23;18.42;;;;;;;;;;4980309;28;20201;-79
2024/01/11 08:15:53;;;;;;;34.95;20.35;;;;;;;;;;4980979;28;20200;-80
2024/01/11 08:18:21;;;;;;;32.60;21.10;;;;;;;;;;4980398;28;20204;-79
2024/01/11 08:20:48;;;;;;;37.53;22.10;;;;;;;;;;4982865;28;20586;-79
2024/01/11 08:23:16;;;;;;;20.17;14.95;;;;;;;;;;4980445;28;20212;-79
2024/01/11 08:25:43;;;;;;;21.52;13.68;;;;;;;;;;4977649;28;20242;-78
2024/01/11 08:28:11;;;;;;;26.15;15.73;;;;;;;;;;4977853;28;20969;-80
2024/01/11 08:30:39;;;;;;;22.00;14.32;;;;;;;;;;4980105;28;20318;-78
2024/01/11 08:33:06;;;;;;;31.70;18.65;;;;;;;;;;4980389;28;20295;-80
2024/01/11 08:35:34;;;;;;;29.60;18.02;;;;;;;;;;4979731;28;20225;-81
2024/01/11 08:38:02;;;;;;;25.98;15.43;;;;;;;;;;4979891;28;20208;-80
2024/01/11 08:40:30;;;;;;;35.53;21.70;;;;;;;;;;4979709;28;20618;-80
2024/01/11 08:42:58;;;;;;;27.30;17.50;;;;;;;;;;4980593;28;20314;-80
2024/01/11 08:45:26;;;;;;;25.63;16.13;;;;;;;;;;4979098;28;20224;-79
2024/01/11 08:47:54;;;;;;;17.25;13.48;;;;;;;;;;4979429;28;20287;-80
2024/01/11 08:50:21;;;;;;;31.60;19.25;;;;;;;;;;4976922;28;20295;-80
2024/01/11 08:52:49;;;;;;;30.98;20.10;;;;;;;;;;4979933;28;20603;-79
2024/01/11 08:55:16;;;;;;;30.77;20.65;;;;;;;;;;4979379;28;20236;-80
2024/01/11 08:57:44;;;;;;;29.05;17.60;;;;;;;;;;4979293;28;20208;-79
2024/01/11 09:00:17;;;;;;;27.67;18.15;;;;;;;;;;4978991;28;20226;-80
2024/01/11 09:02:46;;;;;;;24.80;18.75;;;;;;;;;;4978133;28;20609;-79
2024/01/11 09:05:15;;;;;;;26.70;17.38;;;;;;;;;;4979200;28;20228;-80
2024/01/11 09:07:43;;;;;;;28.45;19.48;;;;;;;;;;4979154;28;20201;-81
2024/01/11 09:10:12;;;;;;;28.17;17.85;;;;;;;;;;4978291;28;20291;-80
2024/01/11 09:12:39;;;;;;;26.17;16.60;;;;;;;;;;4978683;28;20845;-80
2024/01/11 09:15:09;;;;;;;32.05;16.88;;;;;;;;;;4978954;28;20691;-79
2024/01/11 09:17:37;;;;;;;35.03;23.88;;;;;;;;;;4978889;28;20332;-80
2024/01/11 09:20:07;;;;;;;28.90;18.27;;;;;;;;;;4979355;28;20207;-79
2024/01/11 09:22:34;;;;;;;35.05;22.40;;;;;;;;;;4976890;28;20205;-80
2024/01/11 09:25:02;;;;;;;25.02;17.25;;;;;;;;;;4977356;28;20240;-80
2024/01/11 09:27:29;;;;;;;35.92;24.02;;;;;;;;;;4975257;28;20213;-80
2024/01/11 09:29:57;;;;;;;34.42;23.27;;;;;;;;;;4975303;28;20207;-80
2024/01/11 09:32:25;;;;;;;37.40;22.63;;;;;;;;;;4977846;28;20605;-81
2024/01/11 09:34:52;;;;;;;26.27;17.88;;;;;;;;;;4977438;28;20241;-81
2024/01/11 09:37:21;;;;;;;23.20;16.15;;;;;;;;;;4976744;28;20200;-79
2024/01/11 09:39:49;;;;;;;26.02;17.63;;;;;;;;;;4976895;28;20211;-81
2024/01/11 09:42:16;;;;;;;26.48;19.25;;;;;;;;;;4977290;28;20209;-82
2024/01/11 09:44:44;;;;;;;22.75;15.60;;;;;;;;;;4976781;28;20248;-79
2024/01/11 09:47:12;;;;;;;29.55;20.13;;;;;;;;;;4980085;28;20208;-80
2024/01/11 09:49:40;;;;;;;27.15;20.77;;;;;;;;;;4976212;28;20196;-81
2024/01/11 09:52:10;;;;;;;22.80;16.73;;;;;;;;;;4976341;28;20315;-81
2024/01/11 09:54:40;;;;;;;22.15;15.20;;;;;;;;;;4976991;28;20255;-81
2024/01/11 09:57:08;;;;;;;23.13;16.90;;;;;;;;;;4976705;28;20208;-81
2024/01/11 09:59:37;;;;;;;19.70;13.95;;;;;;;;;;4974997;28;20214;-81
2024/01/11 10:02:07;;;;;;;24.15;16.02;;;;;;;;;;4976253;28;20228;-81
2024/01/11 10:04:37;;;;;;;23.38;15.95;;;;;;;;;;4976000;28;20234;-81
2024/01/11 10:07:06;;;;;;;24.75;19.10;;;;;;;;;;4976831;28;20815;-81
2024/01/11 10:09:33;;;;;;;23.48;17.23;;;;;;;;;;4975648;28;20574;-81
2024/01/11 10:12:03;;;;;;;26.83;18.88;;;;;;;;;;4975622;28;20234;-81
2024/01/11 10:14:31;;;;;;;28.08;19.67;;;;;;;;;;4975185;28;20221;-81
2024/01/11 10:16:58;;;;;;;29.63;20.45;;;;;;;;;;4972204;28;20599;-82
2024/01/11 10:19:26;;;;;;;31.77;22.55;;;;;;;;;;4974823;28;20240;-81
2024/01/11 10:21:54;;;;;;;28.73;19.95;;;;;;;;;;4974786;28;20207;-81
2024/01/11 10:24:25;;;;;;;24.63;17.58;;;;;;;;;;4970002;28;20288;-82
2024/01/11 10:26:54;;;;;;;24.25;17.33;;;;;;;;;;4972906;28;20196;-82
2024/01/11 10:29:23;;;;;;;27.83;20.30;;;;;;;;;;4970185;28;20208;-81
2024/01/11 10:31:51;;;;;;;23.58;17.08;;;;;;;;;;4970412;28;20691;-81
2024/01/11 10:34:20;;;;;;;23.75;17.65;;;;;;;;;;4980512;28;20254;-81
2024/01/11 10:36:48;;;;;;;26.98;18.83;;;;;;;;;;4975649;28;20299;-80
2024/01/11 10:39:18;;;;;;;19.70;14.73;;;;;;;;;;4975049;28;20251;-81
2024/01/11 10:41:51;;;;;;;21.55;16.67;;;;;;;;;;4975021;28;20641;-81
2024/01/11 10:44:22;;;;;;;22.40;16.58;;;;;;;;;;4978300;28;20232;-81
2024/01/11 10:46:51;;;;;;;21.52;15.52;;;;;;;;;;4975688;28;20215;-82
2024/01/11 10:49:20;;;;;;;23.63;19.27;;;;;;;;;;4978060;28;20213;-81
2024/01/11 10:52:01;;;;;;;27.10;19.02;;;;;;;;;;4977582;28;20240;-79
2024/01/11 10:54:30;;;;;;;29.92;21.92;;;;;;;;;;4974660;28;20260;-81
2024/01/11 10:56:59;;;;;;;24.75;18.52;;;;;;;;;;4978564;28;20208;-80
2024/01/11 10:59:30;;;;;;;26.92;19.92;;;;;;;;;;4976529;28;20206;-80
2024/01/11 11:01:59;;;;;;;20.40;15.30;;;;;;;;;;4975248;28;20204;-81
2024/01/11 11:04:27;;;;;;;26.63;20.00;;;;;;;;;;4974610;28;20730;-81
2024/01/11 11:06:57;;;;;;;25.38;17.27;;;;;;;;;;4975110;28;20230;-81
2024/01/11 11:09:27;;;;;;;29.85;19.95;;;;;;;;;;4973782;28;20207;-81
2024/01/11 11:11:56;;;;;;;27.20;20.10;;;;;;;;;;4974663;28;20730;-81
2024/01/11 11:14:24;;;;;;;27.63;19.00;;;;;;;;;;4973252;28;20216;-81
2024/01/11 11:16:53;;;;;;;26.88;19.70;;;;;;;;;;4975728;28;20203;-81
2024/01/11 11:19:21;;;;;;;21.02;16.73;;;;;;;;;;4974494;28;20196;-81
2024/01/11 11:21:51;;;;;;;26.00;19.20;;;;;;;;;;4976178;28;20571;-81
2024/01/11 11:24:18;;;;;;;20.38;15.73;;;;;;;;;;4972454;28;20594;-80
2024/01/11 11:26:46;;;;;;;25.48;18.13;;;;;;;;;;4972247;28;20200;-81
2024/01/11 11:29:13;;;;;;;24.08;18.88;;;;;;;;;;4973224;28;20667;-82
2024/01/11 11:31:45;;;;;;;26.98;21.15;;;;;;;;;;4969488;28;20210;-80
2024/01/11 11:34:15;;;;;;;29.75;20.90;;;;;;;;;;4971391;28;20295;-81
2024/01/11 11:36:42;;;;;;;20.17;16.83;;;;;;;;;;4980079;28;20200;-81
2024/01/11 11:39:12;;;;;;;23.70;17.70;;;;;;;;;;4977913;28;20205;-81
2024/01/11 11:41:41;;;;;;;23.60;17.90;;;;;;;;;;4977867;28;20204;-81
2024/01/11 11:44:09;;;;;;;20.77;15.23;;;;;;;;;;4977693;28;20224;-81
2024/01/11 11:46:36;;;;;;;18.20;15.60;;;;;;;;;;4977467;28;20210;-80
2024/01/11 11:49:04;;;;;;;20.52;14.75;;;;;;;;;;4977030;28;20295;-81
2024/01/11 11:51:34;;;;;;;20.30;15.68;;;;;;;;;;4977609;28;20207;-81
2024/01/11 11:54:02;;;;;;;17.73;11.60;;;;;;;;;;4976960;28;20769;-80
2024/01/11 11:56:30;;;;;;;12.90;8.48;;;;;;;;;;4976552;28;20201;-81
2024/01/11 11:58:58;;;;;;;11.35;8.65;;;;;;;;;;4976951;28;20204;-80
2024/01/11 12:01:25;;;;;;;12.27;8.32;;;;;;;;;;4977546;28;20207;-80
2024/01/11 12:03:54;;;;;;;12.40;7.97;;;;;;;;;;4977460;28;20216;-80
2024/01/11 12:06:24;;;;;;;10.98;7.65;;;;;;;;;;4974995;28;20287;-80
2024/01/11 12:08:55;;;;;;;10.77;8.13;;;;;;;;;;4977588;28;20196;-80
2024/01/11 12:11:23;;;;;;;9.65;7.68;;;;;;;;;;4975384;28;20224;-81
2024/01/11 12:13:53;;;;;;;11.55;8.70;;;;;;;;;;4977841;28;20247;-80
2024/01/11 12:16:21;;;;;;;13.98;11.35;;;;;;;;;;4978401;28;20224;-80
2024/01/11 12:18:50;;;;;;;14.48;11.32;;;;;;;;;;4976861;28;20259;-80
2024/01/11 12:21:18;;;;;;;12.27;10.35;;;;;;;;;;4977817;28;20236;-79
2024/01/11 12:23:45;;;;;;;14.95;11.52;;;;;;;;;;4980850;28;20232;-81
2024/01/11 12:26:15;;;;;;;14.10;10.88;;;;;;;;;;4977442;28;20196;-81
2024/01/11 12:28:43;;;;;;;13.45;10.63;;;;;;;;;;4977372;28;20209;-81
2024/01/11 12:31:12;;;;;;;17.15;11.43;;;;;;;;;;4976280;28;20216;-82
2024/01/11 12:33:40;;;;;;;15.43;10.98;;;;;;;;;;4975152;28;20275;-82
2024/01/11 12:36:09;;;;;;;16.25;10.75;;;;;;;;;;4981141;28;20213;-80
2024/01/11 12:38:36;;;;;;;14.55;10.60;;;;;;;;;;4981616;28;20668;-79
2024/01/11 12:41:04;;;;;;;13.32;8.50;;;;;;;;;;4982090;28;20224;-82
2024/01/11 12:43:35;;;;;;;8.75;6.53;;;;;;;;;;4985001;28;20590;-82
2024/01/11 12:46:02;;;;;;;12.48;6.70;;;;;;;;;;4979518;28;20204;-82
2024/01/11 12:48:30;;;;;;;7.57;5.20;;;;;;;;;;4980861;28;20287;-83
2024/01/11 12:50:58;;;;;;;5.85;4.82;;;;;;;;;;4981295;28;20215;-81
2024/01/11 12:53:26;;;;;;;10.20;5.40;;;;;;;;;;4981944;28;20572;-81
2024/01/11 12:56:08;;;;;;;7.97;4.47;;;;;;;;;;4980418;28;20238;-82
2024/01/11 12:58:37;;;;;;;7.07;4.60;;;;;;;;;;4980879;28;20222;-81
2024/01/11 13:01:07;;;;;;;6.15;4.13;;;;;;;;;;4979883;28;20671;-82
2024/01/11 13:03:35;;;;;;;9.38;4.88;;;;;;;;;;4982107;28;20647;-82
2024/01/11 13:06:04;;;;;;;5.45;4.45;;;;;;;;;;4979181;28;20240;-81
2024/01/11 13:08:32;;;;;;;6.50;5.80;;;;;;;;;;4980988;28;20200;-82
2024/01/11 13:11:01;;;;;;;10.38;5.82;;;;;;;;;;4982848;28;20592;-82
2024/01/11 13:13:30;;;;;;;9.13;6.68;;;;;;;;;;4981091;28;20291;-83
2024/01/11 13:15:59;;;;;;;9.68;7.18;;;;;;;;;;4981155;28;20266;-82
2024/01/11 13:18:26;;;;;;;7.72;5.93;;;;;;;;;;4983458;28;20563;-81
2024/01/11 13:20:53;;;;;;;7.78;5.95;;;;;;;;;;4981014;28;20240;-80
2024/01/11 13:23:24;;;;;;;6.82;5.25;;;;;;;;;;4981402;28;20715;-82
2024/01/11 13:25:51;;;;;;;11.52;6.68;;;;;;;;;;4976000;28;20196;-82
2024/01/11 13:28:19;;;;;;;9.93;7.40;;;;;;;;;;4983599;28;20295;-81
2024/01/11 13:30:48;;;;;;;8.85;6.80;;;;;;;;;;4980786;28;20224;-82
2024/01/11 13:33:17;;;;;;;8.63;7.60;;;;;;;;;;4975210;28;20201;-82
2024/01/11 13:35:45;;;;;;;14.43;10.20;;;;;;;;;;4979829;28;20220;-81
2024/01/11 13:38:13;;;;;;;10.15;7.63;;;;;;;;;;4981009;28;20268;-81
2024/01/11 13:40:41;;;;;;;15.50;11.57;;;;;;;;;;4977588;28;20633;-82
2024/01/11 13:43:09;;;;;;;19.75;10.45;;;;;;;;;;4980567;28;20239;-82
2024/01/11 13:45:37;;;;;;;13.57;10.05;;;;;;;;;;4981007;28;20255;-82
2024/01/11 13:48:06;;;;;;;17.50;11.70;;;;;;;;;;4983841;28;20735;-82
2024/01/11 13:50:35;;;;;;;14.40;11.63;;;;;;;;;;4979169;28;20611;-82
2024/01/11 13:53:02;;;;;;;16.10;11.85;;;;;;;;;;4978314;28;20203;-82
2024/01/11 13:55:37;;;;;;;17.65;11.75;;;;;;;;;;4980322;28;20320;-81
2024/01/11 13:58:05;;;;;;;19.45;14.30;;;;;;;;;;4978733;28;20210;-81
2024/01/11 14:00:33;;;;;;;24.52;14.73;;;;;;;;;;4979406;28;20201;-80
2024/01/11 14:03:00;;;;;;;17.67;13.00;;;;;;;;;;4979244;28;20414;-80
2024/01/11 14:05:28;;;;;;;18.05;13.55;;;;;;;;;;4979259;28;20228;-81
2024/01/11 14:07:59;;;;;;;18.85;12.82;;;;;;;;;;4979696;28;20223;-80
2024/01/11 14:10:26;;;;;;;22.60;14.55;;;;;;;;;;4977333;28;20209;-80
2024/01/11 14:12:54;;;;;;;19.40;13.02;;;;;;;;;;4979635;28;20208;-82
2024/01/11 14:15:21;;;;;;;17.92;14.02;;;;;;;;;;4982225;28;20607;-81
2024/01/11 14:17:49;;;;;;;24.30;15.23;;;;;;;;;;4979467;28;20208;-81
2024/01/11 14:20:17;;;;;;;21.45;15.10;;;;;;;;;;4979128;28;20299;-81
2024/01/11 14:22:48;;;;;;;22.35;15.50;;;;;;;;;;4978995;28;20212;-80